sensor_id;sensor_type;location;lat;lon;timestamp;temperature;humidity
4677;DHT22;2352;48.180;11.478;2023-04-25T00:02:06;11.80;91.60
4677;DHT22;2352;48.180;11.478;2023-04-25T00:05:10;11.90;91.50
4677;DHT22;2352;48.180;11.478;2023-04-25T00:08:14;11.90;91.50
4677;DHT22;2352;48.180;11.478;2023-04-25T00:11:17;11.90;91.40
4677;DHT22;2352;48.180;11.478;2023-04-25T00:14:20;12.00;91.70
4677;DHT22;2352;48.180;11.478;2023-04-25T00:17:24;12.00;91.70
4677;DHT22;2352;48.180;11.478;2023-04-25T00:23:33;11.90;91.10
4677;DHT22;2352;48.180;11.478;2023-04-25T00:26:37;11.90;91.50
4677;DHT22;2352;48.180;11.478;2023-04-25T00:29:40;11.90;91.40
4677;DHT22;2352;48.180;11.478;2023-04-25T00:32:43;11.90;91.90
4677;DHT22;2352;48.180;11.478;2023-04-25T00:35:47;11.90;91.60
4677;DHT22;2352;48.180;11.478;2023-04-25T00:38:52;11.80;91.70
4677;DHT22;2352;48.180;11.478;2023-04-25T00:41:56;11.90;91.60
4677;DHT22;2352;48.180;11.478;2023-04-25T00:45:01;12.00;91.90
4677;DHT22;2352;48.180;11.478;2023-04-25T00:48:04;12.10;91.10
4677;DHT22;2352;48.180;11.478;2023-04-25T00:51:07;12.10;91.60
4677;DHT22;2352;48.180;11.478;2023-04-25T00:54:12;12.00;91.40
4677;DHT22;2352;48.180;11.478;2023-04-25T00:57:15;12.10;91.60
4677;DHT22;2352;48.180;11.478;2023-04-25T01:00:18;12.10;91.20
4677;DHT22;2352;48.180;11.478;2023-04-25T01:03:22;12.20;91.10
4677;DHT22;2352;48.180;11.478;2023-04-25T01:06:26;12.20;91.40
4677;DHT22;2352;48.180;11.478;2023-04-25T01:09:31;12.20;91.60
4677;DHT22;2352;48.180;11.478;2023-04-25T01:12:34;12.10;91.60
4677;DHT22;2352;48.180;11.478;2023-04-25T01:15:37;12.20;91.30
4677;DHT22;2352;48.180;11.478;2023-04-25T01:18:40;12.10;91.60
4677;DHT22;2352;48.180;11.478;2023-04-25T01:21:45;12.10;92.00
4677;DHT22;2352;48.180;11.478;2023-04-25T01:24:49;12.10;91.90
4677;DHT22;2352;48.180;11.478;2023-04-25T01:27:52;12.00;91.50
4677;DHT22;2352;48.180;11.478;2023-04-25T01:30:56;12.00;91.90
4677;DHT22;2352;48.180;11.478;2023-04-25T01:33:59;12.00;91.90
4677;DHT22;2352;48.180;11.478;2023-04-25T01:37:03;11.90;91.80
4677;DHT22;2352;48.180;11.478;2023-04-25T01:40:07;11.90;92.10
4677;DHT22;2352;48.180;11.478;2023-04-25T01:43:10;11.80;92.00
4677;DHT22;2352;48.180;11.478;2023-04-25T01:46:14;11.80;92.20
4677;DHT22;2352;48.180;11.478;2023-04-25T01:49:17;11.80;92.40
4677;DHT22;2352;48.180;11.478;2023-04-25T01:52:21;11.80;91.90
4677;DHT22;2352;48.180;11.478;2023-04-25T01:55:24;11.90;92.30
4677;DHT22;2352;48.180;11.478;2023-04-25T01:58:27;11.70;92.00
4677;DHT22;2352;48.180;11.478;2023-04-25T02:01:30;11.60;92.10
4677;DHT22;2352;48.180;11.478;2023-04-25T02:04:32;11.70;92.50
4677;DHT22;2352;48.180;11.478;2023-04-25T02:07:37;11.80;92.60
4677;DHT22;2352;48.180;11.478;2023-04-25T02:10:40;11.70;92.80
4677;DHT22;2352;48.180;11.478;2023-04-25T02:13:42;11.70;92.80
4677;DHT22;2352;48.180;11.478;2023-04-25T02:16:46;11.70;92.40
4677;DHT22;2352;48.180;11.478;2023-04-25T02:19:49;11.60;92.30
4677;DHT22;2352;48.180;11.478;2023-04-25T02:22:54;11.60;92.40
4677;DHT22;2352;48.180;11.478;2023-04-25T02:25:57;11.60;92.10
4677;DHT22;2352;48.180;11.478;2023-04-25T02:29:00;11.50;92.20
4677;DHT22;2352;48.180;11.478;2023-04-25T02:32:03;11.60;92.00
4677;DHT22;2352;48.180;11.478;2023-04-25T02:35:06;11.60;91.80
4677;DHT22;2352;48.180;11.478;2023-04-25T02:38:11;11.50;91.90
4677;DHT22;2352;48.180;11.478;2023-04-25T02:41:14;11.50;92.30
4677;DHT22;2352;48.180;11.478;2023-04-25T02:44:16;11.50;92.10
4677;DHT22;2352;48.180;11.478;2023-04-25T02:47:20;11.60;91.80
4677;DHT22;2352;48.180;11.478;2023-04-25T02:50:23;11.60;92.00
4677;DHT22;2352;48.180;11.478;2023-04-25T02:53:27;11.60;91.80
4677;DHT22;2352;48.180;11.478;2023-04-25T02:56:30;11.60;91.90
4677;DHT22;2352;48.180;11.478;2023-04-25T02:59:33;11.50;91.50
4677;DHT22;2352;48.180;11.478;2023-04-25T03:02:36;11.40;91.50
4677;DHT22;2352;48.180;11.478;2023-04-25T03:05:39;11.30;91.60
4677;DHT22;2352;48.180;11.478;2023-04-25T03:08:43;11.20;91.70
4677;DHT22;2352;48.180;11.478;2023-04-25T03:11:46;11.10;91.80
4677;DHT22;2352;48.180;11.478;2023-04-25T03:14:49;11.10;92.30
4677;DHT22;2352;48.180;11.478;2023-04-25T03:17:52;11.10;93.00
4677;DHT22;2352;48.180;11.478;2023-04-25T03:20:55;10.90;92.90
4677;DHT22;2352;48.180;11.478;2023-04-25T03:24:00;10.90;93.60
4677;DHT22;2352;48.180;11.478;2023-04-25T03:27:03;10.80;93.10
4677;DHT22;2352;48.180;11.478;2023-04-25T03:30:07;10.80;93.50
4677;DHT22;2352;48.180;11.478;2023-04-25T03:33:10;10.80;92.70
4677;DHT22;2352;48.180;11.478;2023-04-25T03:36:13;10.70;92.60
4677;DHT22;2352;48.180;11.478;2023-04-25T03:39:17;10.70;92.60
4677;DHT22;2352;48.180;11.478;2023-04-25T03:42:20;10.50;93.00
4677;DHT22;2352;48.180;11.478;2023-04-25T03:45:24;10.50;93.00
4677;DHT22;2352;48.180;11.478;2023-04-25T03:48:27;10.60;92.80
4677;DHT22;2352;48.180;11.478;2023-04-25T03:51:30;10.70;93.10
4677;DHT22;2352;48.180;11.478;2023-04-25T03:54:34;10.50;92.90
4677;DHT22;2352;48.180;11.478;2023-04-25T03:57:37;10.40;93.20
4677;DHT22;2352;48.180;11.478;2023-04-25T04:00:40;10.50;93.30
4677;DHT22;2352;48.180;11.478;2023-04-25T04:03:43;10.40;93.40
4677;DHT22;2352;48.180;11.478;2023-04-25T04:06:46;10.50;93.40
4677;DHT22;2352;48.180;11.478;2023-04-25T04:09:50;10.50;93.40
4677;DHT22;2352;48.180;11.478;2023-04-25T04:12:53;10.50;93.30
4677;DHT22;2352;48.180;11.478;2023-04-25T04:15:56;10.60;93.30
4677;DHT22;2352;48.180;11.478;2023-04-25T04:18:59;10.80;92.80
4677;DHT22;2352;48.180;11.478;2023-04-25T04:22:02;10.70;92.90
4677;DHT22;2352;48.180;11.478;2023-04-25T04:25:07;10.70;93.10
4677;DHT22;2352;48.180;11.478;2023-04-25T04:28:11;10.60;93.10
4677;DHT22;2352;48.180;11.478;2023-04-25T04:31:14;10.60;93.20
4677;DHT22;2352;48.180;11.478;2023-04-25T04:34:19;10.60;93.20
4677;DHT22;2352;48.180;11.478;2023-04-25T04:37:22;10.50;93.40
4677;DHT22;2352;48.180;11.478;2023-04-25T04:40:27;10.60;93.50
4677;DHT22;2352;48.180;11.478;2023-04-25T04:43:29;10.70;93.40
4677;DHT22;2352;48.180;11.478;2023-04-25T04:46:35;10.60;93.60
4677;DHT22;2352;48.180;11.478;2023-04-25T04:49:39;10.70;93.40
4677;DHT22;2352;48.180;11.478;2023-04-25T04:52:42;10.70;93.80
4677;DHT22;2352;48.180;11.478;2023-04-25T04:55:47;10.70;93.70
4677;DHT22;2352;48.180;11.478;2023-04-25T04:58:49;10.70;93.90
4677;DHT22;2352;48.180;11.478;2023-04-25T05:01:52;10.30;94.20
4677;DHT22;2352;48.180;11.478;2023-04-25T05:04:56;10.40;94.60
4677;DHT22;2352;48.180;11.478;2023-04-25T05:07:59;10.40;94.50
4677;DHT22;2352;48.180;11.478;2023-04-25T05:11:03;10.60;94.70
4677;DHT22;2352;48.180;11.478;2023-04-25T05:14:06;10.80;94.20
4677;DHT22;2352;48.180;11.478;2023-04-25T05:17:09;10.70;94.30
4677;DHT22;2352;48.180;11.478;2023-04-25T05:20:12;10.60;94.40
4677;DHT22;2352;48.180;11.478;2023-04-25T05:23:15;10.30;94.80
4677;DHT22;2352;48.180;11.478;2023-04-25T05:26:19;10.10;95.70
4677;DHT22;2352;48.180;11.478;2023-04-25T05:29:22;10.10;96.40
4677;DHT22;2352;48.180;11.478;2023-04-25T05:32:25;10.30;97.00
4677;DHT22;2352;48.180;11.478;2023-04-25T05:35:29;10.40;96.60
4677;DHT22;2352;48.180;11.478;2023-04-25T05:38:32;10.20;97.10
4677;DHT22;2352;48.180;11.478;2023-04-25T05:41:37;10.20;97.20
4677;DHT22;2352;48.180;11.478;2023-04-25T05:44:39;10.20;97.30
4677;DHT22;2352;48.180;11.478;2023-04-25T05:47:42;10.20;97.40
4677;DHT22;2352;48.180;11.478;2023-04-25T05:50:46;10.30;97.40
4677;DHT22;2352;48.180;11.478;2023-04-25T05:53:49;10.40;97.20
4677;DHT22;2352;48.180;11.478;2023-04-25T05:56:55;10.40;97.50
4677;DHT22;2352;48.180;11.478;2023-04-25T05:59:58;10.50;96.90
4677;DHT22;2352;48.180;11.478;2023-04-25T06:03:01;10.40;97.00
4677;DHT22;2352;48.180;11.478;2023-04-25T06:06:05;10.50;96.80
4677;DHT22;2352;48.180;11.478;2023-04-25T06:09:08;10.30;97.10
4677;DHT22;2352;48.180;11.478;2023-04-25T06:12:12;10.10;97.60
4677;DHT22;2352;48.180;11.478;2023-04-25T06:15:15;10.00;98.60
4677;DHT22;2352;48.180;11.478;2023-04-25T06:18:29;10.30;99.00
4677;DHT22;2352;48.180;11.478;2023-04-25T06:21:32;10.30;97.70
4677;DHT22;2352;48.180;11.478;2023-04-25T06:24:35;10.30;98.20
4677;DHT22;2352;48.180;11.478;2023-04-25T06:27:39;10.40;98.40
4677;DHT22;2352;48.180;11.478;2023-04-25T06:30:42;10.30;98.70
4677;DHT22;2352;48.180;11.478;2023-04-25T06:33:44;10.40;98.80
4677;DHT22;2352;48.180;11.478;2023-04-25T06:36:47;10.40;98.60
4677;DHT22;2352;48.180;11.478;2023-04-25T06:39:50;10.20;98.90
4677;DHT22;2352;48.180;11.478;2023-04-25T06:42:54;10.30;98.90
4677;DHT22;2352;48.180;11.478;2023-04-25T06:45:57;10.20;99.10
4677;DHT22;2352;48.180;11.478;2023-04-25T06:49:00;10.30;99.30
4677;DHT22;2352;48.180;11.478;2023-04-25T06:52:03;10.50;99.30
4677;DHT22;2352;48.180;11.478;2023-04-25T06:55:06;10.60;98.40
4677;DHT22;2352;48.180;11.478;2023-04-25T06:58:11;10.60;98.90
4677;DHT22;2352;48.180;11.478;2023-04-25T07:01:13;10.50;99.10
4677;DHT22;2352;48.180;11.478;2023-04-25T07:04:16;10.50;98.60
4677;DHT22;2352;48.180;11.478;2023-04-25T07:07:19;10.60;98.50
4677;DHT22;2352;48.180;11.478;2023-04-25T07:10:22;10.60;98.30
4677;DHT22;2352;48.180;11.478;2023-04-25T07:13:26;10.70;97.70
4677;DHT22;2352;48.180;11.478;2023-04-25T07:16:29;10.70;97.80
4677;DHT22;2352;48.180;11.478;2023-04-25T07:19:32;10.70;98.30
4677;DHT22;2352;48.180;11.478;2023-04-25T07:22:36;10.80;98.10
4677;DHT22;2352;48.180;11.478;2023-04-25T07:25:39;10.80;98.10
4677;DHT22;2352;48.180;11.478;2023-04-25T07:28:43;11.00;98.10
4677;DHT22;2352;48.180;11.478;2023-04-25T07:31:47;11.00;97.70
4677;DHT22;2352;48.180;11.478;2023-04-25T07:34:50;11.00;97.70
4677;DHT22;2352;48.180;11.478;2023-04-25T07:37:52;11.00;98.20
4677;DHT22;2352;48.180;11.478;2023-04-25T07:40:55;11.10;97.70
4677;DHT22;2352;48.180;11.478;2023-04-25T07:44:00;11.10;97.20
4677;DHT22;2352;48.180;11.478;2023-04-25T07:47:03;11.20;97.30
4677;DHT22;2352;48.180;11.478;2023-04-25T07:50:06;11.20;97.10
4677;DHT22;2352;48.180;11.478;2023-04-25T07:53:09;11.00;97.20
4677;DHT22;2352;48.180;11.478;2023-04-25T07:56:12;11.00;96.90
4677;DHT22;2352;48.180;11.478;2023-04-25T07:59:16;11.00;97.60
4677;DHT22;2352;48.180;11.478;2023-04-25T08:02:19;11.10;97.30
4677;DHT22;2352;48.180;11.478;2023-04-25T08:05:22;11.10;97.60
4677;DHT22;2352;48.180;11.478;2023-04-25T08:08:25;11.30;96.70
4677;DHT22;2352;48.180;11.478;2023-04-25T08:11:28;11.40;97.10
4677;DHT22;2352;48.180;11.478;2023-04-25T08:14:32;11.60;96.40
4677;DHT22;2352;48.180;11.478;2023-04-25T08:17:39;11.60;95.60
4677;DHT22;2352;48.180;11.478;2023-04-25T08:20:42;11.70;96.20
4677;DHT22;2352;48.180;11.478;2023-04-25T08:23:45;11.60;96.60
4677;DHT22;2352;48.180;11.478;2023-04-25T08:26:47;11.70;95.60
4677;DHT22;2352;48.180;11.478;2023-04-25T08:29:52;11.80;95.50
4677;DHT22;2352;48.180;11.478;2023-04-25T08:32:55;11.80;95.20
4677;DHT22;2352;48.180;11.478;2023-04-25T08:35:58;11.80;94.30
4677;DHT22;2352;48.180;11.478;2023-04-25T08:39:00;12.10;96.40
4677;DHT22;2352;48.180;11.478;2023-04-25T08:42:06;12.30;94.80
4677;DHT22;2352;48.180;11.478;2023-04-25T08:45:11;12.40;92.80
4677;DHT22;2352;48.180;11.478;2023-04-25T08:48:15;12.50;93.00
4677;DHT22;2352;48.180;11.478;2023-04-25T08:51:22;12.60;92.00
4677;DHT22;2352;48.180;11.478;2023-04-25T08:54:27;12.70;91.70
4677;DHT22;2352;48.180;11.478;2023-04-25T08:57:37;12.80;92.90
4677;DHT22;2352;48.180;11.478;2023-04-25T09:00:42;13.00;91.50
4677;DHT22;2352;48.180;11.478;2023-04-25T09:03:45;12.90;90.90
4677;DHT22;2352;48.180;11.478;2023-04-25T09:06:48;12.80;89.40
4677;DHT22;2352;48.180;11.478;2023-04-25T09:09:52;13.00;90.20
4677;DHT22;2352;48.180;11.478;2023-04-25T09:13:05;13.10;89.50
4677;DHT22;2352;48.180;11.478;2023-04-25T09:16:09;13.20;85.10
4677;DHT22;2352;48.180;11.478;2023-04-25T09:19:21;13.20;85.50
4677;DHT22;2352;48.180;11.478;2023-04-25T09:22:39;13.20;84.70
4677;DHT22;2352;48.180;11.478;2023-04-25T09:25:42;13.20;86.50
4677;DHT22;2352;48.180;11.478;2023-04-25T09:28:45;13.40;84.40
4677;DHT22;2352;48.180;11.478;2023-04-25T09:31:50;13.60;83.00
4677;DHT22;2352;48.180;11.478;2023-04-25T09:34:55;13.70;81.80
4677;DHT22;2352;48.180;11.478;2023-04-25T09:37:58;13.60;81.20
4677;DHT22;2352;48.180;11.478;2023-04-25T09:41:01;13.60;82.70
4677;DHT22;2352;48.180;11.478;2023-04-25T09:44:04;13.60;81.40
4677;DHT22;2352;48.180;11.478;2023-04-25T09:47:09;13.60;82.30
4677;DHT22;2352;48.180;11.478;2023-04-25T09:50:14;13.80;82.40
4677;DHT22;2352;48.180;11.478;2023-04-25T09:53:18;13.90;84.00
4677;DHT22;2352;48.180;11.478;2023-04-25T09:56:21;14.20;83.40
4677;DHT22;2352;48.180;11.478;2023-04-25T09:59:25;14.40;80.20
4677;DHT22;2352;48.180;11.478;2023-04-25T10:02:29;14.40;78.90
4677;DHT22;2352;48.180;11.478;2023-04-25T10:05:34;14.40;79.20
4677;DHT22;2352;48.180;11.478;2023-04-25T10:08:39;14.50;84.00
4677;DHT22;2352;48.180;11.478;2023-04-25T10:11:44;14.70;78.40
4677;DHT22;2352;48.180;11.478;2023-04-25T10:14:47;14.70;78.40
4677;DHT22;2352;48.180;11.478;2023-04-25T10:17:52;14.90;75.10
4677;DHT22;2352;48.180;11.478;2023-04-25T10:20:57;14.80;73.50
4677;DHT22;2352;48.180;11.478;2023-04-25T10:24:02;14.70;75.50
4677;DHT22;2352;48.180;11.478;2023-04-25T10:27:06;14.70;76.20
4677;DHT22;2352;48.180;11.478;2023-04-25T10:30:13;14.80;80.10
4677;DHT22;2352;48.180;11.478;2023-04-25T10:33:30;14.60;79.10
4677;DHT22;2352;48.180;11.478;2023-04-25T10:36:34;14.30;80.30
4677;DHT22;2352;48.180;11.478;2023-04-25T10:39:40;14.20;80.10
4677;DHT22;2352;48.180;11.478;2023-04-25T10:42:43;14.10;77.50
4677;DHT22;2352;48.180;11.478;2023-04-25T10:45:53;13.90;76.90
4677;DHT22;2352;48.180;11.478;2023-04-25T10:48:58;14.00;78.20
4677;DHT22;2352;48.180;11.478;2023-04-25T10:52:16;13.80;80.90
4677;DHT22;2352;48.180;11.478;2023-04-25T10:55:20;13.70;82.40
4677;DHT22;2352;48.180;11.478;2023-04-25T10:58:22;13.50;83.10
4677;DHT22;2352;48.180;11.478;2023-04-25T11:01:25;13.40;82.50
4677;DHT22;2352;48.180;11.478;2023-04-25T11:04:31;13.50;83.00
4677;DHT22;2352;48.180;11.478;2023-04-25T11:07:42;13.40;85.60
4677;DHT22;2352;48.180;11.478;2023-04-25T11:11:00;13.10;87.80
4677;DHT22;2352;48.180;11.478;2023-04-25T11:14:03;13.00;90.30
4677;DHT22;2352;48.180;11.478;2023-04-25T11:17:06;12.60;91.30
4677;DHT22;2352;48.180;11.478;2023-04-25T11:20:11;12.70;91.20
4677;DHT22;2352;48.180;11.478;2023-04-25T11:23:16;12.70;90.00
4677;DHT22;2352;48.180;11.478;2023-04-25T11:26:19;12.80;90.90
4677;DHT22;2352;48.180;11.478;2023-04-25T11:29:22;12.80;90.10
4677;DHT22;2352;48.180;11.478;2023-04-25T11:32:25;12.80;90.00
4677;DHT22;2352;48.180;11.478;2023-04-25T11:35:30;12.80;90.60
4677;DHT22;2352;48.180;11.478;2023-04-25T11:38:35;12.70;90.60
4677;DHT22;2352;48.180;11.478;2023-04-25T11:41:38;12.80;92.80
4677;DHT22;2352;48.180;11.478;2023-04-25T11:44:42;12.90;92.60
4677;DHT22;2352;48.180;11.478;2023-04-25T11:47:46;12.70;91.20
4677;DHT22;2352;48.180;11.478;2023-04-25T11:50:50;12.50;91.20
4677;DHT22;2352;48.180;11.478;2023-04-25T11:53:53;12.30;91.90
4677;DHT22;2352;48.180;11.478;2023-04-25T11:56:56;12.00;93.70
4677;DHT22;2352;48.180;11.478;2023-04-25T12:00:06;11.80;93.90
4677;DHT22;2352;48.180;11.478;2023-04-25T12:03:10;11.50;95.00
4677;DHT22;2352;48.180;11.478;2023-04-25T12:06:18;11.40;94.90
4677;DHT22;2352;48.180;11.478;2023-04-25T12:09:28;11.40;95.70
4677;DHT22;2352;48.180;11.478;2023-04-25T12:12:32;11.30;95.90
4677;DHT22;2352;48.180;11.478;2023-04-25T12:15:35;11.40;95.30
4677;DHT22;2352;48.180;11.478;2023-04-25T12:18:39;10.90;95.00
4677;DHT22;2352;48.180;11.478;2023-04-25T12:21:44;11.00;96.10
4677;DHT22;2352;48.180;11.478;2023-04-25T12:24:59;11.30;96.90
4677;DHT22;2352;48.180;11.478;2023-04-25T12:28:12;11.30;96.40
4677;DHT22;2352;48.180;11.478;2023-04-25T12:31:15;11.20;96.40
4677;DHT22;2352;48.180;11.478;2023-04-25T12:34:18;11.00;96.60
4677;DHT22;2352;48.180;11.478;2023-04-25T12:37:23;11.10;96.60
4677;DHT22;2352;48.180;11.478;2023-04-25T12:40:26;10.80;97.20
4677;DHT22;2352;48.180;11.478;2023-04-25T12:43:29;11.00;98.00
4677;DHT22;2352;48.180;11.478;2023-04-25T12:46:31;11.20;97.90
4677;DHT22;2352;48.180;11.478;2023-04-25T12:49:34;11.30;98.00
4677;DHT22;2352;48.180;11.478;2023-04-25T12:52:38;11.40;97.20
4677;DHT22;2352;48.180;11.478;2023-04-25T12:55:41;11.40;96.60
4677;DHT22;2352;48.180;11.478;2023-04-25T12:58:44;11.60;96.70
4677;DHT22;2352;48.180;11.478;2023-04-25T13:01:47;11.60;96.40
4677;DHT22;2352;48.180;11.478;2023-04-25T13:04:50;11.50;97.40
4677;DHT22;2352;48.180;11.478;2023-04-25T13:07:54;11.60;97.20
4677;DHT22;2352;48.180;11.478;2023-04-25T13:10:57;11.40;97.10
4677;DHT22;2352;48.180;11.478;2023-04-25T13:14:01;11.20;97.80
4677;DHT22;2352;48.180;11.478;2023-04-25T13:17:04;11.30;98.10
4677;DHT22;2352;48.180;11.478;2023-04-25T13:20:08;11.30;97.80
4677;DHT22;2352;48.180;11.478;2023-04-25T13:23:15;11.40;98.30
4677;DHT22;2352;48.180;11.478;2023-04-25T13:26:18;11.50;97.20
4677;DHT22;2352;48.180;11.478;2023-04-25T13:29:22;11.20;96.80
4677;DHT22;2352;48.180;11.478;2023-04-25T13:32:24;11.10;97.20
4677;DHT22;2352;48.180;11.478;2023-04-25T13:35:27;11.20;97.40
4677;DHT22;2352;48.180;11.478;2023-04-25T13:38:31;11.30;97.30
4677;DHT22;2352;48.180;11.478;2023-04-25T13:41:34;11.40;97.80
4677;DHT22;2352;48.180;11.478;2023-04-25T13:44:37;11.20;97.80
4677;DHT22;2352;48.180;11.478;2023-04-25T13:47:40;11.20;98.80
4677;DHT22;2352;48.180;11.478;2023-04-25T13:50:43;11.30;98.40
4677;DHT22;2352;48.180;11.478;2023-04-25T13:53:47;11.20;99.60
4677;DHT22;2352;48.180;11.478;2023-04-25T13:56:50;11.20;99.10
4677;DHT22;2352;48.180;11.478;2023-04-25T13:59:53;11.10;99.00
4677;DHT22;2352;48.180;11.478;2023-04-25T14:02:56;11.10;99.20
4677;DHT22;2352;48.180;11.478;2023-04-25T14:05:59;11.00;99.40
4677;DHT22;2352;48.180;11.478;2023-04-25T14:09:04;11.00;99.90
4677;DHT22;2352;48.180;11.478;2023-04-25T14:12:08;11.10;99.80
4677;DHT22;2352;48.180;11.478;2023-04-25T14:15:11;11.20;99.50
4677;DHT22;2352;48.180;11.478;2023-04-25T14:18:14;11.20;99.90
4677;DHT22;2352;48.180;11.478;2023-04-25T14:21:16;11.20;99.90
4677;DHT22;2352;48.180;11.478;2023-04-25T14:24:21;11.30;99.50
4677;DHT22;2352;48.180;11.478;2023-04-25T14:27:24;11.40;99.70
4677;DHT22;2352;48.180;11.478;2023-04-25T14:30:29;11.40;98.80
4677;DHT22;2352;48.180;11.478;2023-04-25T14:33:32;11.40;98.70
4677;DHT22;2352;48.180;11.478;2023-04-25T14:36:35;11.40;98.10
4677;DHT22;2352;48.180;11.478;2023-04-25T14:39:40;11.40;98.60
4677;DHT22;2352;48.180;11.478;2023-04-25T14:42:45;11.50;99.00
4677;DHT22;2352;48.180;11.478;2023-04-25T14:45:48;11.50;99.00
4677;DHT22;2352;48.180;11.478;2023-04-25T14:48:50;11.60;98.50
4677;DHT22;2352;48.180;11.478;2023-04-25T14:51:53;11.60;98.80
4677;DHT22;2352;48.180;11.478;2023-04-25T14:54:58;11.50;99.10
4677;DHT22;2352;48.180;11.478;2023-04-25T14:58:02;11.50;98.80
4677;DHT22;2352;48.180;11.478;2023-04-25T15:01:04;11.50;98.60
4677;DHT22;2352;48.180;11.478;2023-04-25T15:04:08;11.50;98.40
4677;DHT22;2352;48.180;11.478;2023-04-25T15:07:12;11.40;98.40
4677;DHT22;2352;48.180;11.478;2023-04-25T15:10:19;11.50;98.40
4677;DHT22;2352;48.180;11.478;2023-04-25T15:13:22;11.40;98.20
4677;DHT22;2352;48.180;11.478;2023-04-25T15:16:25;11.40;98.50
4677;DHT22;2352;48.180;11.478;2023-04-25T15:19:28;11.50;99.30
4677;DHT22;2352;48.180;11.478;2023-04-25T15:22:31;11.50;98.90
4677;DHT22;2352;48.180;11.478;2023-04-25T15:25:35;11.40;98.70
4677;DHT22;2352;48.180;11.478;2023-04-25T15:28:38;11.50;98.60
4677;DHT22;2352;48.180;11.478;2023-04-25T15:31:41;11.50;99.00
4677;DHT22;2352;48.180;11.478;2023-04-25T15:34:44;11.60;99.10
4677;DHT22;2352;48.180;11.478;2023-04-25T15:37:46;11.70;98.20
4677;DHT22;2352;48.180;11.478;2023-04-25T15:40:51;11.60;98.80
4677;DHT22;2352;48.180;11.478;2023-04-25T15:43:54;11.70;98.20
4677;DHT22;2352;48.180;11.478;2023-04-25T15:46:57;11.50;97.60
4677;DHT22;2352;48.180;11.478;2023-04-25T15:50:01;11.50;97.20
4677;DHT22;2352;48.180;11.478;2023-04-25T15:53:05;11.50;97.40
4677;DHT22;2352;48.180;11.478;2023-04-25T15:56:09;11.60;97.60
4677;DHT22;2352;48.180;11.478;2023-04-25T15:59:12;11.70;97.60
4677;DHT22;2352;48.180;11.478;2023-04-25T16:02:16;11.60;97.30
4677;DHT22;2352;48.180;11.478;2023-04-25T16:05:19;11.70;97.50
4677;DHT22;2352;48.180;11.478;2023-04-25T16:08:22;11.70;97.90
4677;DHT22;2352;48.180;11.478;2023-04-25T16:11:27;11.70;98.00
4677;DHT22;2352;48.180;11.478;2023-04-25T16:14:31;11.70;97.80
4677;DHT22;2352;48.180;11.478;2023-04-25T16:17:34;11.70;97.60
4677;DHT22;2352;48.180;11.478;2023-04-25T16:20:37;11.60;97.10
4677;DHT22;2352;48.180;11.478;2023-04-25T16:23:40;11.50;97.60
4677;DHT22;2352;48.180;11.478;2023-04-25T16:26:44;11.60;97.40
4677;DHT22;2352;48.180;11.478;2023-04-25T16:29:47;11.60;97.20
4677;DHT22;2352;48.180;11.478;2023-04-25T16:32:51;11.70;97.70
4677;DHT22;2352;48.180;11.478;2023-04-25T16:35:54;11.60;97.20
4677;DHT22;2352;48.180;11.478;2023-04-25T16:38:57;11.40;97.10
4677;DHT22;2352;48.180;11.478;2023-04-25T16:42:03;11.30;98.30
4677;DHT22;2352;48.180;11.478;2023-04-25T16:45:07;11.40;98.10
4677;DHT22;2352;48.180;11.478;2023-04-25T16:48:10;11.40;97.40
4677;DHT22;2352;48.180;11.478;2023-04-25T16:51:13;11.40;97.50
4677;DHT22;2352;48.180;11.478;2023-04-25T16:54:15;11.40;97.70
4677;DHT22;2352;48.180;11.478;2023-04-25T16:57:19;11.40;97.90
4677;DHT22;2352;48.180;11.478;2023-04-25T17:00:22;11.40;97.50
4677;DHT22;2352;48.180;11.478;2023-04-25T17:03:25;11.40;98.00
4677;DHT22;2352;48.180;11.478;2023-04-25T17:06:29;11.40;97.60
4677;DHT22;2352;48.180;11.478;2023-04-25T17:09:31;11.30;97.30
4677;DHT22;2352;48.180;11.478;2023-04-25T17:12:36;11.30;98.10
4677;DHT22;2352;48.180;11.478;2023-04-25T17:15:38;11.40;97.90
4677;DHT22;2352;48.180;11.478;2023-04-25T17:18:42;11.50;97.60
4677;DHT22;2352;48.180;11.478;2023-04-25T17:21:45;11.60;97.60
4677;DHT22;2352;48.180;11.478;2023-04-25T17:24:48;11.60;97.50
4677;DHT22;2352;48.180;11.478;2023-04-25T17:27:53;11.70;97.10
4677;DHT22;2352;48.180;11.478;2023-04-25T17:30:56;11.70;97.70
4677;DHT22;2352;48.180;11.478;2023-04-25T17:33:59;11.70;97.00
4677;DHT22;2352;48.180;11.478;2023-04-25T17:37:02;11.80;97.40
4677;DHT22;2352;48.180;11.478;2023-04-25T17:40:06;11.80;96.90
4677;DHT22;2352;48.180;11.478;2023-04-25T17:43:13;11.80;96.70
4677;DHT22;2352;48.180;11.478;2023-04-25T17:46:16;11.80;96.40
4677;DHT22;2352;48.180;11.478;2023-04-25T17:49:19;11.90;96.60
4677;DHT22;2352;48.180;11.478;2023-04-25T17:52:23;11.90;96.20
4677;DHT22;2352;48.180;11.478;2023-04-25T17:55:26;11.90;96.20
4677;DHT22;2352;48.180;11.478;2023-04-25T17:58:30;11.90;95.70
4677;DHT22;2352;48.180;11.478;2023-04-25T18:01:33;11.80;96.10
4677;DHT22;2352;48.180;11.478;2023-04-25T18:04:36;11.70;97.00
4677;DHT22;2352;48.180;11.478;2023-04-25T18:07:39;11.50;96.90
4677;DHT22;2352;48.180;11.478;2023-04-25T18:10:43;11.50;96.60
4677;DHT22;2352;48.180;11.478;2023-04-25T18:13:47;11.50;96.40
4677;DHT22;2352;48.180;11.478;2023-04-25T18:16:51;11.60;95.80
4677;DHT22;2352;48.180;11.478;2023-04-25T18:19:54;11.40;96.70
4677;DHT22;2352;48.180;11.478;2023-04-25T18:22:57;11.10;96.20
4677;DHT22;2352;48.180;11.478;2023-04-25T18:25:59;11.20;96.90
4677;DHT22;2352;48.180;11.478;2023-04-25T18:29:05;10.90;97.40
4677;DHT22;2352;48.180;11.478;2023-04-25T18:32:08;10.90;97.20
4677;DHT22;2352;48.180;11.478;2023-04-25T18:35:12;10.90;97.70
4677;DHT22;2352;48.180;11.478;2023-04-25T18:38:15;11.00;98.20
4677;DHT22;2352;48.180;11.478;2023-04-25T18:41:36;11.10;98.20
4677;DHT22;2352;48.180;11.478;2023-04-25T18:44:56;11.10;97.90
4677;DHT22;2352;48.180;11.478;2023-04-25T18:47:59;11.00;98.20
4677;DHT22;2352;48.180;11.478;2023-04-25T18:51:03;11.10;98.00
4677;DHT22;2352;48.180;11.478;2023-04-25T18:54:06;11.20;98.00
4677;DHT22;2352;48.180;11.478;2023-04-25T18:57:11;11.10;98.30
4677;DHT22;2352;48.180;11.478;2023-04-25T19:00:18;11.10;98.20
4677;DHT22;2352;48.180;11.478;2023-04-25T19:03:23;11.20;98.00
4677;DHT22;2352;48.180;11.478;2023-04-25T19:06:40;11.10;98.10
4677;DHT22;2352;48.180;11.478;2023-04-25T19:09:45;11.10;98.00
4677;DHT22;2352;48.180;11.478;2023-04-25T19:12:55;11.10;98.40
4677;DHT22;2352;48.180;11.478;2023-04-25T19:16:12;11.10;98.20
4677;DHT22;2352;48.180;11.478;2023-04-25T19:19:15;11.00;98.00
4677;DHT22;2352;48.180;11.478;2023-04-25T19:22:17;11.00;98.30
4677;DHT22;2352;48.180;11.478;2023-04-25T19:25:21;11.10;98.20
4677;DHT22;2352;48.180;11.478;2023-04-25T19:28:34;10.90;98.40
4677;DHT22;2352;48.180;11.478;2023-04-25T19:31:42;10.90;99.40
4677;DHT22;2352;48.180;11.478;2023-04-25T19:34:51;10.90;98.80
4677;DHT22;2352;48.180;11.478;2023-04-25T19:37:54;11.00;99.20
4677;DHT22;2352;48.180;11.478;2023-04-25T19:41:03;11.00;99.00
4677;DHT22;2352;48.180;11.478;2023-04-25T19:44:07;10.90;99.30